sensor_id;sensor_type;location;lat;lon;timestamp;pressure;altitude;pressure_sealevel;temperature;humidity
63535;BME280;55128;50.230;18.944;2023-02-22T00:01:16;98423.00;;;3.68;75.78
63535;BME280;55128;50.230;18.944;2023-02-22T00:06:34;98433.16;;;3.83;75.85
63535;BME280;55128;50.230;18.944;2023-02-22T00:11:34;98429.91;;;3.72;76.15
63535;BME280;55128;50.230;18.944;2023-02-22T00:16:35;98414.78;;;3.83;75.71
63535;BME280;55128;50.230;18.944;2023-02-22T00:21:35;98423.84;;;3.70;76.25
63535;BME280;55128;50.230;18.944;2023-02-22T00:26:36;98421.50;;;3.55;75.96
63535;BME280;55128;50.230;18.944;2023-02-22T00:31:36;98434.75;;;3.50;75.76
63535;BME280;55128;50.230;18.944;2023-02-22T00:36:38;98435.78;;;3.41;75.01
63535;BME280;55128;50.230;18.944;2023-02-22T00:41:43;98438.84;;;3.20;75.71
63535;BME280;55128;50.230;18.944;2023-02-22T00:46:43;98435.41;;;3.18;75.36
63535;BME280;55128;50.230;18.944;2023-02-22T00:51:44;98428.56;;;3.09;75.56
63535;BME280;55128;50.230;18.944;2023-02-22T00:56:44;98438.47;;;2.93;75.98
63535;BME280;55128;50.230;18.944;2023-02-22T01:01:44;98437.94;;;2.74;76.54
63535;BME280;55128;50.230;18.944;2023-02-22T01:06:45;98443.38;;;2.63;76.89
63535;BME280;55128;50.230;18.944;2023-02-22T01:11:45;98431.25;;;2.56;76.83
63535;BME280;55128;50.230;18.944;2023-02-22T01:16:46;98437.47;;;2.50;76.46
63535;BME280;55128;50.230;18.944;2023-02-22T01:21:48;98444.63;;;2.39;77.02
63535;BME280;55128;50.230;18.944;2023-02-22T01:26:50;98437.63;;;2.40;76.12
63535;BME280;55128;50.230;18.944;2023-02-22T01:31:54;98425.50;;;2.34;76.34
63535;BME280;55128;50.230;18.944;2023-02-22T01:36:55;98432.69;;;2.21;76.33
63535;BME280;55128;50.230;18.944;2023-02-22T01:41:55;98439.75;;;2.16;76.68
63535;BME280;55128;50.230;18.944;2023-02-22T01:46:58;98445.16;;;2.04;77.45
63535;BME280;55128;50.230;18.944;2023-02-22T01:52:01;98438.38;;;1.90;77.63
63535;BME280;55128;50.230;18.944;2023-02-22T01:57:07;98438.28;;;1.97;77.27
63535;BME280;55128;50.230;18.944;2023-02-22T02:02:12;98434.72;;;2.01;77.58
63535;BME280;55128;50.230;18.944;2023-02-22T02:07:16;98435.78;;;1.89;77.59
63535;BME280;55128;50.230;18.944;2023-02-22T02:12:18;98434.09;;;1.86;77.94
63535;BME280;55128;50.230;18.944;2023-02-22T02:17:21;98434.81;;;1.96;77.60
63535;BME280;55128;50.230;18.944;2023-02-22T02:22:53;98440.13;;;1.90;77.79
63535;BME280;55128;50.230;18.944;2023-02-22T02:34:04;98438.50;;;1.81;78.21
63535;BME280;55128;50.230;18.944;2023-02-22T02:39:19;98436.72;;;1.85;78.12
63535;BME280;55128;50.230;18.944;2023-02-22T02:44:45;98436.69;;;1.88;78.28
63535;BME280;55128;50.230;18.944;2023-02-22T02:55:03;98440.28;;;1.81;78.12
63535;BME280;55128;50.230;18.944;2023-02-22T03:00:06;98442.72;;;1.91;78.08
63535;BME280;55128;50.230;18.944;2023-02-22T03:05:40;98441.81;;;1.94;77.58
63535;BME280;55128;50.230;18.944;2023-02-22T03:10:51;98457.78;;;1.75;78.40
63535;BME280;55128;50.230;18.944;2023-02-22T03:21:23;98440.25;;;1.82;78.00
63535;BME280;55128;50.230;18.944;2023-02-22T03:26:40;98437.69;;;1.78;77.89
63535;BME280;55128;50.230;18.944;2023-02-22T03:31:47;98451.63;;;1.78;77.53
63535;BME280;55128;50.230;18.944;2023-02-22T03:36:58;98458.72;;;1.70;77.93
63535;BME280;55128;50.230;18.944;2023-02-22T03:42:07;98454.34;;;1.69;77.81
63535;BME280;55128;50.230;18.944;2023-02-22T03:47:12;98455.28;;;1.65;77.51
63535;BME280;55128;50.230;18.944;2023-02-22T03:52:13;98463.28;;;1.54;78.00
63535;BME280;55128;50.230;18.944;2023-02-22T03:57:21;98469.47;;;1.47;77.95
63535;BME280;55128;50.230;18.944;2023-02-22T04:02:24;98461.75;;;1.38;78.34
63535;BME280;55128;50.230;18.944;2023-02-22T04:07:24;98461.66;;;1.44;77.85
63535;BME280;55128;50.230;18.944;2023-02-22T04:12:25;98459.97;;;1.41;77.52
63535;BME280;55128;50.230;18.944;2023-02-22T04:17:25;98464.34;;;1.39;77.72
63535;BME280;55128;50.230;18.944;2023-02-22T04:22:25;98466.16;;;1.31;77.60
63535;BME280;55128;50.230;18.944;2023-02-22T04:27:26;98457.50;;;1.26;78.28
63535;BME280;55128;50.230;18.944;2023-02-22T04:32:26;98462.72;;;1.26;78.69
63535;BME280;55128;50.230;18.944;2023-02-22T04:37:26;98459.97;;;1.41;78.59
63535;BME280;55128;50.230;18.944;2023-02-22T04:42:27;98457.13;;;1.60;78.47
63535;BME280;55128;50.230;18.944;2023-02-22T04:47:27;98457.06;;;1.63;78.45
63535;BME280;55128;50.230;18.944;2023-02-22T04:52:28;98460.41;;;1.74;77.94
63535;BME280;55128;50.230;18.944;2023-02-22T04:57:28;98460.41;;;1.72;77.80
63535;BME280;55128;50.230;18.944;2023-02-22T05:02:28;98450.94;;;1.65;77.99
63535;BME280;55128;50.230;18.944;2023-02-22T05:07:29;98456.28;;;1.56;78.19
63535;BME280;55128;50.230;18.944;2023-02-22T05:12:29;98455.47;;;1.51;78.22
63535;BME280;55128;50.230;18.944;2023-02-22T05:17:30;98459.81;;;1.52;77.14
63535;BME280;55128;50.230;18.944;2023-02-22T05:22:30;98459.16;;;1.34;78.98
63535;BME280;55128;50.230;18.944;2023-02-22T05:27:30;98463.25;;;1.57;78.91
63535;BME280;55128;50.230;18.944;2023-02-22T05:32:31;98472.66;;;1.69;78.62
63535;BME280;55128;50.230;18.944;2023-02-22T05:37:31;98472.56;;;1.78;77.94
63535;BME280;55128;50.230;18.944;2023-02-22T05:42:31;98470.16;;;1.63;79.28
63535;BME280;55128;50.230;18.944;2023-02-22T05:47:32;98476.91;;;1.81;78.47
63535;BME280;55128;50.230;18.944;2023-02-22T05:52:32;98479.56;;;1.74;79.93
63535;BME280;55128;50.230;18.944;2023-02-22T05:57:33;98479.19;;;2.05;79.02
63535;BME280;55128;50.230;18.944;2023-02-22T06:02:33;98491.13;;;2.23;78.98
63535;BME280;55128;50.230;18.944;2023-02-22T06:07:34;98494.56;;;2.27;78.65
63535;BME280;55128;50.230;18.944;2023-02-22T06:12:34;98490.09;;;2.35;78.05
63535;BME280;55128;50.230;18.944;2023-02-22T06:17:34;98503.78;;;2.54;78.04
63535;BME280;55128;50.230;18.944;2023-02-22T06:22:35;98507.28;;;2.53;78.03
63535;BME280;55128;50.230;18.944;2023-02-22T06:27:35;98517.16;;;2.36;78.70
63535;BME280;55128;50.230;18.944;2023-02-22T06:32:36;98531.56;;;2.64;78.22
63535;BME280;55128;50.230;18.944;2023-02-22T06:37:38;98522.22;;;3.02;77.74
63535;BME280;55128;50.230;18.944;2023-02-22T06:42:39;98533.38;;;3.14;77.44
63535;BME280;55128;50.230;18.944;2023-02-22T06:47:40;98542.81;;;3.24;77.11
63535;BME280;55128;50.230;18.944;2023-02-22T06:52:43;98543.28;;;3.47;76.96
63535;BME280;55128;50.230;18.944;2023-02-22T06:57:44;98552.00;;;3.48;77.03
63535;BME280;55128;50.230;18.944;2023-02-22T07:02:45;98551.94;;;3.51;76.70
63535;BME280;55128;50.230;18.944;2023-02-22T07:07:48;98561.16;;;3.72;76.75
63535;BME280;55128;50.230;18.944;2023-02-22T07:12:49;98552.19;;;3.84;76.03
63535;BME280;55128;50.230;18.944;2023-02-22T07:17:51;98550.25;;;3.92;76.09
63535;BME280;55128;50.230;18.944;2023-02-22T07:22:52;98551.66;;;4.08;76.31
63535;BME280;55128;50.230;18.944;2023-02-22T07:27:52;98557.72;;;4.12;75.88
63535;BME280;55128;50.230;18.944;2023-02-22T07:32:53;98557.34;;;4.31;75.56
63535;BME280;55128;50.230;18.944;2023-02-22T07:37:54;98549.09;;;4.46;75.50
63535;BME280;55128;50.230;18.944;2023-02-22T07:48:00;98559.66;;;4.82;76.24
63535;BME280;55128;50.230;18.944;2023-02-22T07:53:03;98559.63;;;4.83;76.37
63535;BME280;55128;50.230;18.944;2023-02-22T07:58:06;98556.44;;;5.06;75.92
63535;BME280;55128;50.230;18.944;2023-02-22T08:03:08;98558.72;;;5.22;76.21
63535;BME280;55128;50.230;18.944;2023-02-22T08:08:09;98561.00;;;5.34;76.19
63535;BME280;55128;50.230;18.944;2023-02-22T08:13:10;98549.19;;;5.51;76.06
63535;BME280;55128;50.230;18.944;2023-02-22T08:18:13;98560.31;;;5.60;75.73
63535;BME280;55128;50.230;18.944;2023-02-22T08:23:16;98567.84;;;5.74;76.32
63535;BME280;55128;50.230;18.944;2023-02-22T08:28:19;98568.00;;;6.02;75.44
63535;BME280;55128;50.230;18.944;2023-02-22T08:33:21;98568.03;;;6.31;74.61
63535;BME280;55128;50.230;18.944;2023-02-22T08:38:27;98561.38;;;6.47;74.37
63535;BME280;55128;50.230;18.944;2023-02-22T08:43:28;98571.03;;;6.76;73.40
63535;BME280;55128;50.230;18.944;2023-02-22T08:48:28;98574.97;;;6.91;74.10
63535;BME280;55128;50.230;18.944;2023-02-22T08:53:29;98581.78;;;6.98;72.85
63535;BME280;55128;50.230;18.944;2023-02-22T08:58:31;98582.56;;;7.02;72.67
63535;BME280;55128;50.230;18.944;2023-02-22T09:03:31;98566.16;;;7.19;72.50
63535;BME280;55128;50.230;18.944;2023-02-22T09:08:32;98580.41;;;7.40;71.83
63535;BME280;55128;50.230;18.944;2023-02-22T09:13:32;98586.19;;;7.51;71.39
63535;BME280;55128;50.230;18.944;2023-02-22T09:18:41;98582.44;;;7.84;71.31
63535;BME280;55128;50.230;18.944;2023-02-22T09:23:41;98590.63;;;7.76;71.28
63535;BME280;55128;50.230;18.944;2023-02-22T09:28:42;98592.56;;;7.96;70.94
63535;BME280;55128;50.230;18.944;2023-02-22T09:33:42;98584.13;;;8.10;69.82
63535;BME280;55128;50.230;18.944;2023-02-22T09:38:43;98584.06;;;8.35;68.78
63535;BME280;55128;50.230;18.944;2023-02-22T09:43:48;98577.88;;;8.36;67.83
63535;BME280;55128;50.230;18.944;2023-02-22T09:54:28;98574.19;;;8.86;66.52
63535;BME280;55128;50.230;18.944;2023-02-22T09:59:39;98573.72;;;8.76;65.50
63535;BME280;55128;50.230;18.944;2023-02-22T10:09:53;98570.78;;;9.69;61.40
63535;BME280;55128;50.230;18.944;2023-02-22T10:15:31;98573.78;;;9.61;60.43
63535;BME280;55128;50.230;18.944;2023-02-22T10:20:46;98572.81;;;9.83;56.81
63535;BME280;55128;50.230;18.944;2023-02-22T10:25:53;98570.13;;;9.84;56.75
63535;BME280;55128;50.230;18.944;2023-02-22T10:31:01;98567.03;;;10.54;54.48
63535;BME280;55128;50.230;18.944;2023-02-22T10:36:03;98571.31;;;10.37;53.04
63535;BME280;55128;50.230;18.944;2023-02-22T10:41:19;98570.72;;;10.87;53.06
63535;BME280;55128;50.230;18.944;2023-02-22T10:46:24;98560.34;;;10.64;53.25
63535;BME280;55128;50.230;18.944;2023-02-22T10:51:26;98560.34;;;10.45;52.39
63535;BME280;55128;50.230;18.944;2023-02-22T10:56:26;98562.00;;;10.47;52.93
63535;BME280;55128;50.230;18.944;2023-02-22T11:06:33;98556.91;;;10.22;51.53
63535;BME280;55128;50.230;18.944;2023-02-22T11:11:33;98556.97;;;10.60;52.61
63535;BME280;55128;50.230;18.944;2023-02-22T11:16:51;98550.78;;;10.60;52.25
63535;BME280;55128;50.230;18.944;2023-02-22T11:22:23;98541.66;;;10.84;50.86
63535;BME280;55128;50.230;18.944;2023-02-22T11:27:43;98542.31;;;10.70;50.23
63535;BME280;55128;50.230;18.944;2023-02-22T11:38:19;98533.53;;;11.59;44.54
63535;BME280;55128;50.230;18.944;2023-02-22T11:43:20;98529.25;;;11.56;43.86
63535;BME280;55128;50.230;18.944;2023-02-22T11:48:20;98538.16;;;11.38;45.02
63535;BME280;55128;50.230;18.944;2023-02-22T12:19:48;98523.47;;;10.39;45.80
63535;BME280;55128;50.230;18.944;2023-02-22T12:25:05;98516.59;;;9.95;46.81
63535;BME280;55128;50.230;18.944;2023-02-22T12:30:20;98518.22;;;9.79;47.35
63535;BME280;55128;50.230;18.944;2023-02-22T12:35:36;98514.47;;;10.22;48.84
63535;BME280;55128;50.230;18.944;2023-02-22T12:46:26;98515.88;;;10.31;48.00
63535;BME280;55128;50.230;18.944;2023-02-22T12:51:36;98517.44;;;10.35;47.86
63535;BME280;55128;50.230;18.944;2023-02-22T13:01:55;98511.25;;;9.97;48.27
63535;BME280;55128;50.230;18.944;2023-02-22T13:07:17;98513.44;;;10.06;48.57
63535;BME280;55128;50.230;18.944;2023-02-22T13:18:25;98506.09;;;9.73;47.40
63535;BME280;55128;50.230;18.944;2023-02-22T13:24:05;98505.66;;;9.63;48.59
63535;BME280;55128;50.230;18.944;2023-02-22T13:29:25;98504.22;;;9.96;48.67
63535;BME280;55128;50.230;18.944;2023-02-22T13:40:00;98502.66;;;10.10;48.33
63535;BME280;55128;50.230;18.944;2023-02-22T13:45:32;98504.44;;;10.10;48.50
63535;BME280;55128;50.230;18.944;2023-02-22T13:50:46;98497.28;;;10.50;47.62
63535;BME280;55128;50.230;18.944;2023-02-22T13:55:54;98502.81;;;10.64;46.99
63535;BME280;55128;50.230;18.944;2023-02-22T14:00:59;98503.78;;;10.05;47.37
63535;BME280;55128;50.230;18.944;2023-02-22T14:05:59;98499.69;;;9.58;48.21
63535;BME280;55128;50.230;18.944;2023-02-22T14:11:04;98499.06;;;9.51;48.40
63535;BME280;55128;50.230;18.944;2023-02-22T14:26:25;98495.50;;;9.52;47.53
63535;BME280;55128;50.230;18.944;2023-02-22T14:31:32;98498.72;;;9.80;48.27
63535;BME280;55128;50.230;18.944;2023-02-22T14:41:58;98506.91;;;9.94;47.95
63535;BME280;55128;50.230;18.944;2023-02-22T14:47:04;98500.09;;;9.88;47.29
63535;BME280;55128;50.230;18.944;2023-02-22T14:52:17;98501.25;;;9.62;48.20
63535;BME280;55128;50.230;18.944;2023-02-22T14:57:26;98508.47;;;9.79;47.15
63535;BME280;55128;50.230;18.944;2023-02-22T15:02:37;98508.00;;;9.90;46.84
63535;BME280;55128;50.230;18.944;2023-02-22T15:07:37;98511.25;;;9.97;47.49
63535;BME280;55128;50.230;18.944;2023-02-22T15:12:38;98494.34;;;9.79;46.86
63535;BME280;55128;50.230;18.944;2023-02-22T15:17:38;98491.22;;;9.50;47.22
63535;BME280;55128;50.230;18.944;2023-02-22T15:22:39;98494.66;;;9.31;48.18
63535;BME280;55128;50.230;18.944;2023-02-22T15:27:43;98503.03;;;9.00;48.50
63535;BME280;55128;50.230;18.944;2023-02-22T15:32:49;98497.34;;;8.45;50.25
63535;BME280;55128;50.230;18.944;2023-02-22T15:38:02;98506.13;;;8.45;50.58
63535;BME280;55128;50.230;18.944;2023-02-22T15:43:06;98505.16;;;8.24;51.27
63535;BME280;55128;50.230;18.944;2023-02-22T15:48:09;98501.47;;;8.05;51.40
63535;BME280;55128;50.230;18.944;2023-02-22T15:53:28;98494.88;;;7.93;51.87
63535;BME280;55128;50.230;18.944;2023-02-22T15:58:29;98495.84;;;7.67;52.41
63535;BME280;55128;50.230;18.944;2023-02-22T16:03:34;98503.59;;;7.46;53.46
63535;BME280;55128;50.230;18.944;2023-02-22T16:08:46;98503.88;;;7.38;53.35
63535;BME280;55128;50.230;18.944;2023-02-22T16:13:52;98507.66;;;7.31;53.80
63535;BME280;55128;50.230;18.944;2023-02-22T16:19:19;98512.16;;;7.28;53.87
63535;BME280;55128;50.230;18.944;2023-02-22T16:24:35;98515.66;;;7.03;55.80
63535;BME280;55128;50.230;18.944;2023-02-22T16:29:36;98510.88;;;6.88;55.97
63535;BME280;55128;50.230;18.944;2023-02-22T16:34:36;98518.78;;;6.61;57.25
63535;BME280;55128;50.230;18.944;2023-02-22T16:39:37;98523.16;;;6.32;58.23
63535;BME280;55128;50.230;18.944;2023-02-22T16:44:37;98527.31;;;6.11;58.34
63535;BME280;55128;50.230;18.944;2023-02-22T16:49:37;98526.25;;;5.85;59.43
63535;BME280;55128;50.230;18.944;2023-02-22T16:54:41;98528.44;;;5.71;59.32
63535;BME280;55128;50.230;18.944;2023-02-22T16:59:42;98527.75;;;5.63;58.77
63535;BME280;55128;50.230;18.944;2023-02-22T17:04:43;98522.09;;;5.45;60.78
63535;BME280;55128;50.230;18.944;2023-02-22T17:09:49;98523.78;;;5.15;62.57
63535;BME280;55128;50.230;18.944;2023-02-22T17:14:50;98530.22;;;5.03;62.95
63535;BME280;55128;50.230;18.944;2023-02-22T17:19:51;98528.13;;;4.80;63.84
63535;BME280;55128;50.230;18.944;2023-02-22T17:24:51;98533.81;;;4.63;63.76
63535;BME280;55128;50.230;18.944;2023-02-22T17:29:52;98530.56;;;4.52;62.53
63535;BME280;55128;50.230;18.944;2023-02-22T17:34:52;98532.88;;;4.27;65.33
63535;BME280;55128;50.230;18.944;2023-02-22T17:39:52;98530.19;;;4.30;63.95
63535;BME280;55128;50.230;18.944;2023-02-22T17:44:54;98533.09;;;4.18;64.23
63535;BME280;55128;50.230;18.944;2023-02-22T17:49:55;98534.28;;;4.03;64.35
63535;BME280;55128;50.230;18.944;2023-02-22T17:54:57;98537.34;;;3.81;65.81
63535;BME280;55128;50.230;18.944;2023-02-22T17:59:58;98532.31;;;3.70;66.35
63535;BME280;55128;50.230;18.944;2023-02-22T18:05:00;98534.25;;;3.62;65.02
63535;BME280;55128;50.230;18.944;2023-02-22T18:10:00;98537.34;;;3.36;66.07
63535;BME280;55128;50.230;18.944;2023-02-22T18:15:05;98531.38;;;3.28;66.96
63535;BME280;55128;50.230;18.944;2023-02-22T18:20:06;98543.81;;;3.17;67.08
63535;BME280;55128;50.230;18.944;2023-02-22T18:25:13;98538.72;;;3.07;67.37
63535;BME280;55128;50.230;18.944;2023-02-22T18:30:15;98537.03;;;3.03;68.09
63535;BME280;55128;50.230;18.944;2023-02-22T18:35:15;98536.56;;;2.80;68.73
63535;BME280;55128;50.230;18.944;2023-02-22T18:40:15;98549.88;;;2.67;69.50
63535;BME280;55128;50.230;18.944;2023-02-22T18:45:18;98548.13;;;2.66;69.29
63535;BME280;55128;50.230;18.944;2023-02-22T18:50:18;98546.50;;;2.59;70.05
63535;BME280;55128;50.230;18.944;2023-02-22T18:55:20;98538.66;;;2.58;70.33
63535;BME280;55128;50.230;18.944;2023-02-22T19:00:20;98545.56;;;2.63;70.03
63535;BME280;55128;50.230;18.944;2023-02-22T19:05:27;98543.09;;;2.54;70.52
63535;BME280;55128;50.230;18.944;2023-02-22T19:10:27;98536.78;;;2.64;69.96
63535;BME280;55128;50.230;18.944;2023-02-22T19:15:29;98535.97;;;2.62;70.52
63535;BME280;55128;50.230;18.944;2023-02-22T19:20:29;98535.34;;;2.45;71.21
63535;BME280;55128;50.230;18.944;2023-02-22T19:25:32;98531.16;;;2.33;71.43
63535;BME280;55128;50.230;18.944;2023-02-22T19:30:32;98538.19;;;2.29;71.59
63535;BME280;55128;50.230;18.944;2023-02-22T19:35:33;98532.03;;;2.32;71.01
63535;BME280;55128;50.230;18.944;2023-02-22T19:40:35;98540.00;;;2.24;71.70
63535;BME280;55128;50.230;18.944;2023-02-22T19:45:38;98536.69;;;2.13;71.97
63535;BME280;55128;50.230;18.944;2023-02-22T19:50:39;98535.09;;;2.00;71.56
63535;BME280;55128;50.230;18.944;2023-02-22T19:55:48;98542.06;;;2.01;72.01
63535;BME280;55128;50.230;18.944;2023-02-22T20:00:52;98534.47;;;1.81;72.87
63535;BME280;55128;50.230;18.944;2023-02-22T20:05:56;98543.28;;;1.73;72.85
63535;BME280;55128;50.230;18.944;2023-02-22T20:10:57;98541.53;;;1.72;71.94
63535;BME280;55128;50.230;18.944;2023-02-22T20:15:57;98534.63;;;1.67;73.32
63535;BME280;55128;50.230;18.944;2023-02-22T20:20:57;98539.03;;;1.63;73.11
63535;BME280;55128;50.230;18.944;2023-02-22T20:25:58;98528.88;;;1.37;73.88
63535;BME280;55128;50.230;18.944;2023-02-22T20:30:58;98541.03;;;1.40;73.98
63535;BME280;55128;50.230;18.944;2023-02-22T20:36:03;98541.03;;;1.40;73.97
63535;BME280;55128;50.230;18.944;2023-02-22T20:41:05;98539.34;;;1.34;74.15
63535;BME280;55128;50.230;18.944;2023-02-22T20:46:06;98544.66;;;1.26;73.93
63535;BME280;55128;50.230;18.944;2023-02-22T20:51:08;98542.22;;;1.08;74.81
63535;BME280;55128;50.230;18.944;2023-02-22T20:56:14;98547.50;;;1.02;75.79
63535;BME280;55128;50.230;18.944;2023-02-22T21:01:16;98541.31;;;1.09;75.46
63535;BME280;55128;50.230;18.944;2023-02-22T21:06:20;98539.59;;;1.08;75.56
63535;BME280;55128;50.230;18.944;2023-02-22T21:11:22;98545.84;;;0.91;76.34
63535;BME280;55128;50.230;18.944;2023-02-22T21:16:26;98543.28;;;0.87;76.66
63535;BME280;55128;50.230;18.944;2023-02-22T21:21:27;98538.00;;;0.90;76.43
63535;BME280;55128;50.230;18.944;2023-02-22T21:26:30;98541.41;;;1.01;76.13
63535;BME280;55128;50.230;18.944;2023-02-22T21:31:32;98536.06;;;1.13;75.70
63535;BME280;55128;50.230;18.944;2023-02-22T21:36:32;98537.78;;;1.14;75.94
63535;BME280;55128;50.230;18.944;2023-02-22T21:41:33;98528.94;;;1.29;76.10
63535;BME280;55128;50.230;18.944;2023-02-22T21:46:33;98520.06;;;1.44;75.14
63535;BME280;55128;50.230;18.944;2023-02-22T21:51:34;98519.03;;;1.58;74.36
63535;BME280;55128;50.230;18.944;2023-02-22T21:56:37;98526.94;;;1.53;74.30
63535;BME280;55128;50.230;18.944;2023-02-22T22:01:44;98513.78;;;1.59;74.27
63535;BME280;55128;50.230;18.944;2023-02-22T22:06:51;98512.91;;;1.62;73.70
63535;BME280;55128;50.230;18.944;2023-02-22T22:11:54;98512.16;;;1.50;74.33
63535;BME280;55128;50.230;18.944;2023-02-22T22:16:58;98503.38;;;1.54;74.31
63535;BME280;55128;50.230;18.944;2023-02-22T22:21:59;98506.09;;;1.45;74.78
63535;BME280;55128;50.230;18.944;2023-02-22T22:27:00;98510.41;;;1.49;74.65
63535;BME280;55128;50.230;18.944;2023-02-22T22:32:03;98509.59;;;1.44;74.16
63535;BME280;55128;50.230;18.944;2023-02-22T22:37:05;98506.13;;;1.42;73.92
63535;BME280;55128;50.230;18.944;2023-02-22T22:42:05;98508.72;;;1.47;74.33
63535;BME280;55128;50.230;18.944;2023-02-22T22:47:05;98511.44;;;1.36;74.48
63535;BME280;55128;50.230;18.944;2023-02-22T22:52:06;98516.59;;;1.42;74.43
63535;BME280;55128;50.230;18.944;2023-02-22T22:57:06;98516.69;;;1.33;74.70
63535;BME280;55128;50.230;18.944;2023-02-22T23:02:07;98519.25;;;1.39;74.29
63535;BME280;55128;50.230;18.944;2023-02-22T23:07:10;98513.22;;;1.32;74.58
63535;BME280;55128;50.230;18.944;2023-02-22T23:12:10;98516.66;;;1.36;74.32
63535;BME280;55128;50.230;18.944;2023-02-22T23:17:16;98515.03;;;1.26;74.95
63535;BME280;55128;50.230;18.944;2023-02-22T23:22:30;98509.94;;;1.13;75.09
63535;BME280;55128;50.230;18.944;2023-02-22T23:27:30;98512.47;;;1.18;75.04
63535;BME280;55128;50.230;18.944;2023-02-22T23:32:30;98508.16;;;1.17;75.13
63535;BME280;55128;50.230;18.944;2023-02-22T23:37:34;98516.09;;;1.08;75.52
63535;BME280;55128;50.230;18.944;2023-02-22T23:42:34;98513.41;;;1.15;75.35
63535;BME280;55128;50.230;18.944;2023-02-22T23:47:34;98517.75;;;1.15;75.29
63535;BME280;55128;50.230;18.944;2023-02-22T23:52:35;98519.63;;;1.04;75.87
63535;BME280;55128;50.230;18.944;2023-02-22T23:57:36;98513.53;;;1.02;76.01
